Time;durP1;ratioP1;P1;durP2;ratioP2;P2;SDS_P1;SDS_P2;PMS_P1;PMS_P2;Temp;Humidity;BMP_temperature;BMP_pressure;BME280_temperature;BME280_humidity;BME280_pressure;Samples;Min_cycle;Max_cycle;Signal;HPM_P1;HPM_P2
2023/07/22 00:03:06;;;;;;;2.80;1.73;;;;;;;;;;10563825;28;20047;-77
2023/07/22 00:08:09;;;;;;;8.80;2.53;;;;;;;;;;10567285;28;20065;-77
2023/07/22 00:13:13;;;;;;;7.63;2.30;;;;;;;;;;10562873;27;20410;-78
2023/07/22 00:18:16;;;;;;;6.22;2.67;;;;;;;;;;10556262;28;20049;-78
2023/07/22 00:23:19;;;;;;;4.57;2.30;;;;;;;;;;10559492;28;20036;-78
2023/07/22 00:28:23;;;;;;;4.78;2.55;;;;;;;;;;10563496;28;20031;-77
2023/07/22 00:33:26;;;;;;;5.57;2.35;;;;;;;;;;10555137;27;20473;-77
2023/07/22 00:38:29;;;;;;;3.28;2.28;;;;;;;;;;10565084;27;20053;-77
2023/07/22 00:43:33;;;;;;;5.95;2.30;;;;;;;;;;10541264;28;20445;-77
2023/07/22 00:48:36;;;;;;;3.80;2.40;;;;;;;;;;10562522;28;20045;-77
2023/07/22 00:53:39;;;;;;;6.15;2.70;;;;;;;;;;10558273;28;20537;-77
2023/07/22 00:58:42;;;;;;;5.53;2.83;;;;;;;;;;10559737;28;20031;-78
2023/07/22 01:03:46;;;;;;;4.25;2.25;;;;;;;;;;10562666;28;20497;-77
2023/07/22 01:08:49;;;;;;;6.55;2.63;;;;;;;;;;10563312;28;20484;-77
2023/07/22 01:13:57;;;;;;;7.60;2.83;;;;;;;;;;10562338;28;20415;-77
2023/07/22 01:19:00;;;;;;;4.55;2.60;;;;;;;;;;10560337;28;20111;-78
2023/07/22 01:24:05;;;;;;;6.63;2.80;;;;;;;;;;10558771;28;20051;-77
2023/07/22 01:29:08;;;;;;;7.43;2.40;;;;;;;;;;10551684;28;20454;-77
2023/07/22 01:34:12;;;;;;;5.63;2.47;;;;;;;;;;10563321;28;20485;-77
2023/07/22 01:39:16;;;;;;;4.50;2.20;;;;;;;;;;10565617;28;20309;-77
2023/07/22 01:44:19;;;;;;;5.25;2.30;;;;;;;;;;10558841;28;20122;-77
2023/07/22 01:49:24;;;;;;;3.67;1.90;;;;;;;;;;10570525;28;20035;-78
2023/07/22 01:54:28;;;;;;;5.13;2.58;;;;;;;;;;10554343;28;20047;-77
2023/07/22 01:59:31;;;;;;;5.30;2.80;;;;;;;;;;10569832;27;20449;-77
2023/07/22 02:04:34;;;;;;;6.88;2.60;;;;;;;;;;10572239;27;20146;-77
2023/07/22 02:09:38;;;;;;;5.22;2.78;;;;;;;;;;10567795;27;20048;-77
2023/07/22 02:14:41;;;;;;;6.53;2.67;;;;;;;;;;10565287;28;20054;-77
2023/07/22 02:19:43;;;;;;;4.60;2.50;;;;;;;;;;10562362;27;20040;-77
2023/07/22 02:24:48;;;;;;;6.03;2.67;;;;;;;;;;10563546;27;20035;-78
2023/07/22 02:29:51;;;;;;;5.78;2.67;;;;;;;;;;10562267;28;20409;-77
2023/07/22 02:34:54;;;;;;;7.90;2.80;;;;;;;;;;10567123;27;20062;-77
2023/07/22 02:39:58;;;;;;;4.67;2.77;;;;;;;;;;10569279;27;20089;-76
2023/07/22 02:45:02;;;;;;;5.32;2.58;;;;;;;;;;10568339;27;20043;-77
2023/07/22 02:50:06;;;;;;;7.95;3.47;;;;;;;;;;10560382;27;20047;-76
2023/07/22 02:55:11;;;;;;;7.78;3.22;;;;;;;;;;10551771;27;20047;-77
2023/07/22 03:00:20;;;;;;;3.42;1.75;;;;;;;;;;10563980;27;20359;-77
2023/07/22 03:05:23;;;;;;;6.75;3.25;;;;;;;;;;10560323;27;20043;-77
2023/07/22 03:10:28;;;;;;;5.70;3.00;;;;;;;;;;10567496;27;20115;-77
2023/07/22 03:15:32;;;;;;;6.05;3.00;;;;;;;;;;10563968;28;20047;-77
2023/07/22 03:20:35;;;;;;;7.65;3.15;;;;;;;;;;10561705;28;20045;-77
2023/07/22 03:25:39;;;;;;;7.50;3.50;;;;;;;;;;10561518;27;20043;-78
2023/07/22 03:30:42;;;;;;;7.90;3.15;;;;;;;;;;10566382;28;20108;-77
2023/07/22 03:35:46;;;;;;;5.63;3.75;;;;;;;;;;10546098;27;20051;-77
2023/07/22 03:40:52;;;;;;;7.63;3.85;;;;;;;;;;10561092;27;20087;-77
2023/07/22 03:45:55;;;;;;;6.13;3.28;;;;;;;;;;10570016;27;20035;-76
2023/07/22 03:50:58;;;;;;;6.50;3.13;;;;;;;;;;10545217;28;20138;-78
2023/07/22 03:56:23;;;;;;;7.15;3.80;;;;;;;;;;10559027;27;20383;-77
2023/07/22 04:01:27;;;;;;;7.30;3.33;;;;;;;;;;10559264;27;20209;-75
2023/07/22 04:06:30;;;;;;;6.68;3.10;;;;;;;;;;10562649;27;20048;-75
2023/07/22 04:11:34;;;;;;;3.92;2.08;;;;;;;;;;10559450;28;20500;-75
2023/07/22 04:16:36;;;;;;;6.13;3.20;;;;;;;;;;10563271;27;20073;-78
2023/07/22 04:21:39;;;;;;;1.67;1.20;;;;;;;;;;10566262;28;20055;-78
2023/07/22 04:26:44;;;;;;;6.43;3.10;;;;;;;;;;10565930;27;20049;-78
2023/07/22 04:31:47;;;;;;;5.82;2.80;;;;;;;;;;10555944;28;20497;-79
2023/07/22 04:36:50;;;;;;;6.07;3.13;;;;;;;;;;10557859;28;20390;-80
2023/07/22 04:41:55;;;;;;;4.22;2.47;;;;;;;;;;10564894;27;20180;-78
2023/07/22 04:46:57;;;;;;;5.85;3.10;;;;;;;;;;10562570;28;20039;-78
2023/07/22 04:52:00;;;;;;;6.43;2.85;;;;;;;;;;10556618;28;20058;-79
2023/07/22 04:57:06;;;;;;;5.97;2.85;;;;;;;;;;10554700;28;20386;-75
2023/07/22 05:02:09;;;;;;;6.00;2.97;;;;;;;;;;10561027;28;20039;-77
2023/07/22 05:07:12;;;;;;;5.38;2.78;;;;;;;;;;10562711;28;20032;-77
2023/07/22 05:12:16;;;;;;;7.13;2.83;;;;;;;;;;10555150;28;20074;-76
2023/07/22 05:17:19;;;;;;;5.03;2.13;;;;;;;;;;10560562;28;20130;-76
2023/07/22 05:22:21;;;;;;;4.30;1.73;;;;;;;;;;10560526;28;20040;-76
2023/07/22 05:27:26;;;;;;;15.48;3.00;;;;;;;;;;10566760;28;20421;-77
2023/07/22 05:32:29;;;;;;;7.78;2.65;;;;;;;;;;10564423;27;20493;-77
2023/07/22 05:37:36;;;;;;;6.03;2.78;;;;;;;;;;10566480;27;20050;-76
2023/07/22 05:42:41;;;;;;;5.88;2.55;;;;;;;;;;10561126;27;20388;-76
2023/07/22 05:47:43;;;;;;;5.70;2.33;;;;;;;;;;10566168;27;20096;-76
2023/07/22 05:52:47;;;;;;;4.13;2.00;;;;;;;;;;10568157;27;20054;-76
2023/07/22 05:57:52;;;;;;;5.78;2.25;;;;;;;;;;10562813;27;20126;-76
2023/07/22 06:02:55;;;;;;;4.13;2.08;;;;;;;;;;10577890;27;20396;-76
2023/07/22 06:07:59;;;;;;;5.10;2.35;;;;;;;;;;10572642;27;20473;-76
2023/07/22 06:13:03;;;;;;;5.07;1.88;;;;;;;;;;10572588;27;20043;-77
2023/07/22 06:18:08;;;;;;;3.95;1.63;;;;;;;;;;10562591;27;20035;-77
2023/07/22 06:23:11;;;;;;;3.78;1.75;;;;;;;;;;10567439;27;20467;-77
2023/07/22 06:28:15;;;;;;;3.67;1.73;;;;;;;;;;10565868;28;20054;-77
2023/07/22 06:33:18;;;;;;;2.83;1.70;;;;;;;;;;10563455;27;20440;-77
2023/07/22 06:38:21;;;;;;;3.42;1.55;;;;;;;;;;10554292;27;20418;-79
2023/07/22 06:43:25;;;;;;;3.65;1.90;;;;;;;;;;10561599;28;20157;-78
2023/07/22 06:48:28;;;;;;;3.13;1.83;;;;;;;;;;10553808;27;20036;-79
2023/07/22 06:53:31;;;;;;;3.67;2.30;;;;;;;;;;10565263;27;20143;-77
2023/07/22 06:58:33;;;;;;;;;;;;;;;;;;10564513;27;20047;-77
2023/07/22 07:03:37;;;;;;;2.95;1.60;;;;;;;;;;10567558;27;19930;-78
2023/07/22 07:08:40;;;;;;;4.32;1.80;;;;;;;;;;10568902;27;20031;-77
2023/07/22 07:13:44;;;;;;;4.28;1.90;;;;;;;;;;10561620;28;20081;-78
2023/07/22 07:18:48;;;;;;;3.00;1.80;;;;;;;;;;10565833;27;20120;-77
2023/07/22 07:23:50;;;;;;;3.65;1.92;;;;;;;;;;10560444;27;20131;-77
2023/07/22 07:28:57;;;;;;;5.55;1.80;;;;;;;;;;10551650;28;20032;-78
2023/07/22 07:34:01;;;;;;;2.47;1.60;;;;;;;;;;10553533;28;20528;-79
2023/07/22 07:39:04;;;;;;;2.20;1.60;;;;;;;;;;10554318;27;20053;-79
2023/07/22 07:44:06;;;;;;;1.67;1.58;;;;;;;;;;10564980;27;20465;-79
2023/07/22 07:49:11;;;;;;;1.85;1.38;;;;;;;;;;10562919;27;20054;-77
2023/07/22 07:54:14;;;;;;;2.95;1.70;;;;;;;;;;10565268;27;20161;-78
2023/07/22 07:59:16;;;;;;;5.60;1.70;;;;;;;;;;10565402;27;20503;-77
2023/07/22 08:04:23;;;;;;;4.32;2.00;;;;;;;;;;10559031;27;20162;-78
2023/07/22 08:09:26;;;;;;;2.55;1.88;;;;;;;;;;10555786;28;20063;-77
2023/07/22 08:14:30;;;;;;;2.38;1.83;;;;;;;;;;10563447;27;20492;-78
2023/07/22 08:19:34;;;;;;;2.38;1.75;;;;;;;;;;10557461;27;20046;-78
2023/07/22 08:24:37;;;;;;;2.47;1.80;;;;;;;;;;10558667;27;20050;-78
2023/07/22 08:29:40;;;;;;;2.35;1.90;;;;;;;;;;10561386;27;20043;-79
2023/07/22 08:34:44;;;;;;;3.53;2.17;;;;;;;;;;10564192;27;22438;-76
2023/07/22 08:39:47;;;;;;;3.20;2.00;;;;;;;;;;10570149;27;20043;-76
2023/07/22 08:44:54;;;;;;;4.28;1.90;;;;;;;;;;10560133;27;20119;-76
2023/07/22 08:49:59;;;;;;;3.10;1.80;;;;;;;;;;10563111;27;20136;-77
2023/07/22 08:55:02;;;;;;;2.70;2.00;;;;;;;;;;10567561;27;20048;-77
2023/07/22 09:00:06;;;;;;;3.78;1.92;;;;;;;;;;10578200;28;20050;-75
2023/07/22 09:05:10;;;;;;;3.17;1.90;;;;;;;;;;10578467;28;20105;-76
2023/07/22 09:10:13;;;;;;;2.20;1.88;;;;;;;;;;10576833;27;20046;-77
2023/07/22 09:15:17;;;;;;;2.65;1.90;;;;;;;;;;10575555;28;20051;-77
2023/07/22 09:20:22;;;;;;;2.50;2.00;;;;;;;;;;10575791;27;20066;-77
2023/07/22 09:25:25;;;;;;;2.67;2.15;;;;;;;;;;10575306;27;20040;-78
2023/07/22 09:30:29;;;;;;;2.20;2.00;;;;;;;;;;10565577;28;20046;-77
2023/07/22 09:35:44;;;;;;;2.45;1.90;;;;;;;;;;10566951;28;20531;-78
2023/07/22 09:40:47;;;;;;;2.97;1.90;;;;;;;;;;10580780;27;20150;-76
2023/07/22 09:45:50;;;;;;;1.95;1.73;;;;;;;;;;10553979;27;20039;-78
2023/07/22 09:50:58;;;;;;;9.07;2.20;;;;;;;;;;10555005;27;20051;-77
2023/07/22 09:56:04;;;;;;;2.20;2.00;;;;;;;;;;10571569;27;20039;-76
2023/07/22 10:01:08;;;;;;;2.22;1.95;;;;;;;;;;10564607;27;20383;-78
2023/07/22 10:06:13;;;;;;;3.28;2.30;;;;;;;;;;10567559;27;20047;-78
2023/07/22 10:11:16;;;;;;;2.13;1.92;;;;;;;;;;10567333;27;20460;-77
2023/07/22 10:16:19;;;;;;;2.42;2.13;;;;;;;;;;10548108;27;20563;-78
2023/07/22 10:21:24;;;;;;;2.67;2.10;;;;;;;;;;10565339;27;20059;-78
2023/07/22 10:26:29;;;;;;;2.58;2.08;;;;;;;;;;10577992;27;20564;-78
2023/07/22 10:31:52;;;;;;;2.30;1.92;;;;;;;;;;10573637;27;20445;-78
2023/07/22 10:43:01;;;;;;;2.08;1.77;;;;;;;;;;10558902;27;20034;-78
2023/07/22 10:48:06;;;;;;;3.08;1.65;;;;;;;;;;10558366;27;20433;-78
2023/07/22 10:53:12;;;;;;;2.35;2.10;;;;;;;;;;10560947;27;20047;-77
2023/07/22 10:58:16;;;;;;;2.85;2.38;;;;;;;;;;10564332;27;20155;-77
2023/07/22 11:03:21;;;;;;;3.97;2.17;;;;;;;;;;10564296;27;20419;-78
2023/07/22 11:08:36;;;;;;;2.63;2.42;;;;;;;;;;10563900;27;20047;-77
2023/07/22 11:13:41;;;;;;;2.97;1.98;;;;;;;;;;10566062;27;20043;-78
2023/07/22 11:18:44;;;;;;;3.13;2.20;;;;;;;;;;10565623;27;20513;-77
2023/07/22 11:23:46;;;;;;;6.65;2.10;;;;;;;;;;10572292;27;20124;-77
2023/07/22 11:28:52;;;;;;;2.50;2.30;;;;;;;;;;10566574;27;20044;-77
2023/07/22 11:33:56;;;;;;;2.67;1.95;;;;;;;;;;10567351;27;20399;-79
2023/07/22 11:39:02;;;;;;;2.13;1.80;;;;;;;;;;10564581;27;20399;-78
2023/07/22 11:44:09;;;;;;;2.67;2.10;;;;;;;;;;10565070;28;20035;-78
2023/07/22 11:49:12;;;;;;;2.40;2.20;;;;;;;;;;10560802;28;20051;-77
2023/07/22 11:54:17;;;;;;;2.50;1.80;;;;;;;;;;10562156;27;20117;-77
2023/07/22 11:59:34;;;;;;;3.28;1.77;;;;;;;;;;10567183;28;20043;-78
2023/07/22 12:04:38;;;;;;;3.30;1.75;;;;;;;;;;10560783;27;20516;-78
2023/07/22 12:09:41;;;;;;;2.10;1.90;;;;;;;;;;10565140;27;20035;-77
2023/07/22 12:14:48;;;;;;;3.20;2.17;;;;;;;;;;10572224;28;20509;-77
2023/07/22 12:20:03;;;;;;;1.88;1.75;;;;;;;;;;10563630;27;20036;-77
2023/07/22 12:25:06;;;;;;;2.22;2.03;;;;;;;;;;10559521;27;20035;-78
2023/07/22 12:30:12;;;;;;;2.92;2.03;;;;;;;;;;10565444;27;20031;-79
2023/07/22 12:35:16;;;;;;;3.85;1.80;;;;;;;;;;10554732;27;20132;-78
2023/07/22 12:40:20;;;;;;;2.38;1.73;;;;;;;;;;10563059;27;20515;-78
2023/07/22 12:45:25;;;;;;;2.58;1.90;;;;;;;;;;10566487;27;20054;-79
2023/07/22 12:50:30;;;;;;;2.80;2.08;;;;;;;;;;10562446;28;20036;-79
2023/07/22 12:55:33;;;;;;;2.35;1.80;;;;;;;;;;10557577;28;20047;-78
2023/07/22 13:00:37;;;;;;;2.50;1.30;;;;;;;;;;10559509;28;20043;-77
2023/07/22 13:05:40;;;;;;;4.13;1.60;;;;;;;;;;10567322;28;20048;-77
2023/07/22 13:10:44;;;;;;;2.67;2.00;;;;;;;;;;10559742;28;20127;-78
2023/07/22 13:15:49;;;;;;;2.53;1.75;;;;;;;;;;10562323;28;20050;-78
2023/07/22 13:20:52;;;;;;;3.10;1.60;;;;;;;;;;10540071;28;20062;-78
2023/07/22 13:25:55;;;;;;;3.58;1.90;;;;;;;;;;10558148;28;20460;-78
2023/07/22 13:31:00;;;;;;;2.33;1.60;;;;;;;;;;10554098;28;20640;-78
2023/07/22 13:36:03;;;;;;;0.95;0.95;;;;;;;;;;10555940;28;20466;-79
2023/07/22 13:41:06;;;;;;;3.78;1.73;;;;;;;;;;10560552;28;20036;-78
2023/07/22 13:46:10;;;;;;;1.67;1.40;;;;;;;;;;10569415;28;20040;-79
2023/07/22 13:51:13;;;;;;;2.45;1.48;;;;;;;;;;10565337;28;20036;-78
2023/07/22 13:56:16;;;;;;;3.72;1.70;;;;;;;;;;10575973;27;20101;-78
2023/07/22 14:01:21;;;;;;;4.22;1.85;;;;;;;;;;10566947;27;20499;-78
2023/07/22 14:06:24;;;;;;;2.53;1.48;;;;;;;;;;10566676;27;20044;-78
2023/07/22 14:11:27;;;;;;;3.67;1.65;;;;;;;;;;10563499;27;20067;-78
2023/07/22 14:16:33;;;;;;;2.38;1.60;;;;;;;;;;10565596;27;20632;-78
2023/07/22 14:21:36;;;;;;;1.80;1.60;;;;;;;;;;10565091;27;20096;-78
2023/07/22 14:26:38;;;;;;;2.25;1.70;;;;;;;;;;10566203;27;20050;-79
2023/07/22 14:31:44;;;;;;;1.95;1.33;;;;;;;;;;10579203;27;20069;-78
2023/07/22 14:36:47;;;;;;;4.38;1.77;;;;;;;;;;10566589;27;20150;-78
2023/07/22 14:41:50;;;;;;;2.30;1.50;;;;;;;;;;10561905;27;20051;-78
2023/07/22 14:46:55;;;;;;;4.07;1.80;;;;;;;;;;10574086;27;20501;-78
2023/07/22 14:51:58;;;;;;;2.47;1.50;;;;;;;;;;10567992;27;20066;-79
2023/07/22 14:57:00;;;;;;;5.22;2.10;;;;;;;;;;10559791;27;20572;-78
2023/07/22 15:02:05;;;;;;;3.38;1.60;;;;;;;;;;10560186;27;20039;-78
2023/07/22 15:07:08;;;;;;;2.95;1.65;;;;;;;;;;10547592;28;20457;-78
2023/07/22 15:12:11;;;;;;;7.30;1.58;;;;;;;;;;10568403;27;20100;-78
2023/07/22 15:17:23;;;;;;;3.78;1.73;;;;;;;;;;10564298;27;20036;-77
2023/07/22 15:22:32;;;;;;;2.92;1.70;;;;;;;;;;10563361;27;20039;-78
2023/07/22 15:28:03;;;;;;;2.78;1.50;;;;;;;;;;10559146;27;20047;-77
2023/07/22 15:33:21;;;;;;;2.40;1.60;;;;;;;;;;10544153;27;20040;-77
2023/07/22 15:38:35;;;;;;;5.93;2.00;;;;;;;;;;10569659;27;20068;-77
2023/07/22 15:43:47;;;;;;;4.25;1.98;;;;;;;;;;10565846;28;20048;-76
2023/07/22 15:48:57;;;;;;;5.18;1.90;;;;;;;;;;10546353;28;20048;-77
2023/07/22 15:54:06;;;;;;;8.20;1.83;;;;;;;;;;10526935;27;20044;-77
2023/07/22 15:59:11;;;;;;;3.85;2.20;;;;;;;;;;10555870;27;20050;-77
2023/07/22 16:04:23;;;;;;;3.47;2.20;;;;;;;;;;10558177;27;20432;-77
2023/07/22 16:09:31;;;;;;;3.15;1.65;;;;;;;;;;10544045;28;20051;-77
2023/07/22 16:14:43;;;;;;;4.72;1.80;;;;;;;;;;10568445;27;20056;-77
2023/07/22 16:20:04;;;;;;;4.25;2.17;;;;;;;;;;10561550;27;20042;-77
2023/07/22 16:25:22;;;;;;;5.22;2.10;;;;;;;;;;10544343;27;20039;-77
2023/07/22 16:30:32;;;;;;;4.32;1.83;;;;;;;;;;10566796;27;20051;-78
2023/07/22 16:36:04;;;;;;;3.72;1.90;;;;;;;;;;10563845;27;20048;-77
2023/07/22 16:46:38;;;;;;;6.78;2.17;;;;;;;;;;10557464;27;20201;-78
2023/07/22 16:51:50;;;;;;;2.75;1.70;;;;;;;;;;10552243;28;20054;-78
2023/07/22 16:57:00;;;;;;;5.95;2.70;;;;;;;;;;10566802;27;20127;-78
2023/07/22 17:02:06;;;;;;;3.58;1.70;;;;;;;;;;10560513;28;20085;-77
2023/07/22 17:07:14;;;;;;;3.83;1.70;;;;;;;;;;10562896;28;20486;-77
2023/07/22 17:12:28;;;;;;;6.65;2.33;;;;;;;;;;10546667;28;20036;-76
2023/07/22 17:17:35;;;;;;;4.95;2.50;;;;;;;;;;10554434;28;20511;-77
2023/07/22 17:22:49;;;;;;;5.25;2.20;;;;;;;;;;10562287;28;20057;-78
2023/07/22 17:27:57;;;;;;;4.80;2.45;;;;;;;;;;10547987;27;20408;-78
2023/07/22 17:33:07;;;;;;;3.70;1.77;;;;;;;;;;10567501;27;20051;-78
2023/07/22 17:38:31;;;;;;;5.50;2.35;;;;;;;;;;10565571;27;20054;-78
2023/07/22 17:49:14;;;;;;;5.60;2.30;;;;;;;;;;10560328;27;20047;-77
2023/07/22 17:54:28;;;;;;;1.73;1.33;;;;;;;;;;10545149;27;20481;-76
2023/07/22 17:59:49;;;;;;;4.63;2.13;;;;;;;;;;10592771;27;20039;-78
2023/07/22 18:05:03;;;;;;;4.40;2.33;;;;;;;;;;10579310;27;20036;-75
2023/07/22 18:10:24;;;;;;;4.13;2.33;;;;;;;;;;10576042;27;20046;-75
2023/07/22 18:15:30;;;;;;;4.38;2.20;;;;;;;;;;10570613;27;20071;-75
2023/07/22 18:20:37;;;;;;;1.90;1.38;;;;;;;;;;10565211;27;20174;-74
2023/07/22 18:25:43;;;;;;;5.43;2.70;;;;;;;;;;10563943;27;20035;-75
2023/07/22 18:30:58;;;;;;;8.23;2.63;;;;;;;;;;10571280;27;20445;-76
2023/07/22 18:36:10;;;;;;;5.63;2.40;;;;;;;;;;10550083;27;20024;-76
2023/07/22 18:41:16;;;;;;;3.42;1.70;;;;;;;;;;10567637;27;20450;-76
2023/07/22 18:46:23;;;;;;;3.90;2.05;;;;;;;;;;10566385;27;20067;-76
2023/07/22 18:51:33;;;;;;;3.20;1.85;;;;;;;;;;10568313;27;20040;-76
2023/07/22 18:56:40;;;;;;;5.97;2.65;;;;;;;;;;10553148;27;20453;-75
2023/07/22 19:01:48;;;;;;;6.93;2.85;;;;;;;;;;10564956;27;20051;-75
2023/07/22 19:06:57;;;;;;;4.60;2.30;;;;;;;;;;10552765;28;20163;-76
2023/07/22 19:12:06;;;;;;;5.45;2.45;;;;;;;;;;10554806;27;20424;-76
2023/07/22 19:17:10;;;;;;;6.85;2.70;;;;;;;;;;10552051;27;20096;-76
2023/07/22 19:22:16;;;;;;;6.18;2.67;;;;;;;;;;10565451;27;20039;-76
2023/07/22 19:27:23;;;;;;;7.68;3.20;;;;;;;;;;10566135;27;20036;-77
2023/07/22 19:44:04;;;;;;;7.22;2.78;;;;;;;;;;10587850;27;20043;-75
2023/07/22 19:49:08;;;;;;;8.32;4.00;;;;;;;;;;10591489;27;20750;-75
2023/07/22 19:54:12;;;;;;;9.18;2.78;;;;;;;;;;10597326;27;20088;-75
2023/07/22 19:59:15;;;;;;;6.35;2.40;;;;;;;;;;10592600;27;20783;-76
2023/07/22 20:04:18;;;;;;;6.45;2.20;;;;;;;;;;10597057;27;20042;-76
2023/07/22 20:09:23;;;;;;;6.85;3.03;;;;;;;;;;10597278;27;20111;-75
2023/07/22 20:14:25;;;;;;;5.85;2.70;;;;;;;;;;10589131;27;20088;-75
2023/07/22 20:19:28;;;;;;;5.43;2.65;;;;;;;;;;10595310;27;20141;-75
2023/07/22 20:24:37;;;;;;;4.75;1.85;;;;;;;;;;10594613;27;20127;-74
2023/07/22 20:29:40;;;;;;;5.30;2.58;;;;;;;;;;10587836;27;20040;-74
2023/07/22 20:34:42;;;;;;;4.28;2.05;;;;;;;;;;10597012;27;20123;-75
2023/07/22 20:39:47;;;;;;;7.78;3.58;;;;;;;;;;10594945;27;20138;-76
2023/07/22 20:44:49;;;;;;;5.32;2.50;;;;;;;;;;10594643;27;20488;-74
2023/07/22 20:49:53;;;;;;;5.30;2.50;;;;;;;;;;10572341;27;20480;-75
2023/07/22 20:54:58;;;;;;;6.45;2.53;;;;;;;;;;10566584;27;20047;-76
2023/07/22 21:00:00;;;;;;;7.20;3.13;;;;;;;;;;10565241;27;20222;-75
2023/07/22 21:05:03;;;;;;;6.13;2.75;;;;;;;;;;10567833;27;20031;-75
2023/07/22 21:10:09;;;;;;;5.73;1.87;;;;;;;;;;10570133;27;20091;-77
2023/07/22 21:15:11;;;;;;;4.38;2.40;;;;;;;;;;10563613;27;20143;-76
2023/07/22 21:20:14;;;;;;;5.78;1.95;;;;;;;;;;10566653;27;20050;-76
2023/07/22 21:25:19;;;;;;;4.55;1.48;;;;;;;;;;10570233;27;20036;-76
2023/07/22 21:30:21;;;;;;;8.60;2.63;;;;;;;;;;10558912;27;20048;-75
2023/07/22 21:35:24;;;;;;;4.82;2.15;;;;;;;;;;10561830;27;20107;-75
2023/07/22 21:40:27;;;;;;;;;;;;;;;;;;10561109;27;20571;-75
2023/07/22 21:45:34;;;;;;;7.53;2.53;;;;;;;;;;10565899;27;20384;-74
2023/07/22 21:50:38;;;;;;;4.57;2.45;;;;;;;;;;10566015;27;20114;-74
2023/07/22 21:55:40;;;;;;;3.33;1.48;;;;;;;;;;10562016;27;20046;-75
2023/07/22 22:00:46;;;;;;;6.13;2.63;;;;;;;;;;10561626;27;20101;-74
2023/07/22 22:05:49;;;;;;;5.47;2.70;;;;;;;;;;10563574;27;20035;-75
2023/07/22 22:10:51;;;;;;;6.27;3.00;;;;;;;;;;10566336;27;20480;-74
2023/07/22 22:15:55;;;;;;;7.40;2.93;;;;;;;;;;10572077;27;20059;-74
2023/07/22 22:20:59;;;;;;;8.63;2.80;;;;;;;;;;10567920;27;20050;-75
2023/07/22 22:26:02;;;;;;;4.45;2.25;;;;;;;;;;10565508;27;20042;-73
2023/07/22 22:31:06;;;;;;;7.15;3.00;;;;;;;;;;10568457;27;20348;-75
2023/07/22 22:36:10;;;;;;;5.78;2.40;;;;;;;;;;10565428;27;20038;-74
2023/07/22 22:41:13;;;;;;;5.60;2.28;;;;;;;;;;10563265;27;20059;-74
2023/07/22 22:46:17;;;;;;;4.53;2.30;;;;;;;;;;10560558;27;20050;-75
2023/07/22 22:51:21;;;;;;;6.28;2.97;;;;;;;;;;10559933;27;20380;-75
2023/07/22 22:56:24;;;;;;;6.70;2.90;;;;;;;;;;10567824;27;20123;-74
2023/07/22 23:01:31;;;;;;;4.77;2.50;;;;;;;;;;10574650;27;20044;-73
2023/07/22 23:06:34;;;;;;;4.90;1.95;;;;;;;;;;10570674;27;20416;-73
2023/07/22 23:11:36;;;;;;;4.03;1.70;;;;;;;;;;10561734;27;20058;-73
2023/07/22 23:16:40;;;;;;;5.32;2.58;;;;;;;;;;10561165;28;20471;-73
2023/07/22 23:21:43;;;;;;;6.45;2.50;;;;;;;;;;10554794;28;20032;-73
2023/07/22 23:26:46;;;;;;;5.55;2.70;;;;;;;;;;10562852;28;20039;-74
2023/07/22 23:31:51;;;;;;;7.65;2.83;;;;;;;;;;10562855;28;20046;-74
2023/07/22 23:36:54;;;;;;;5.70;2.47;;;;;;;;;;10560222;28;20040;-74
2023/07/22 23:41:57;;;;;;;4.35;2.45;;;;;;;;;;10557212;28;20048;-73
2023/07/22 23:47:02;;;;;;;3.33;2.00;;;;;;;;;;10561593;28;20044;-73
2023/07/22 23:52:05;;;;;;;4.85;2.53;;;;;;;;;;10563442;28;20284;-73
2023/07/22 23:57:08;;;;;;;5.37;2.80;;;;;;;;;;10562343;28;20123;-73
